createdAt,value
2022-08-21T00:03:26.806Z,17.55
2022-08-21T00:07:38.458Z,17.53
2022-08-21T00:11:50.186Z,17.48
2022-08-21T00:16:02.532Z,17.42
2022-08-21T00:20:16.928Z,17.41
2022-08-21T00:24:28.673Z,17.27
2022-08-21T00:28:40.403Z,17.32
2022-08-21T00:32:53.964Z,17.23
2022-08-21T00:37:05.703Z,17.13
2022-08-21T00:41:29.869Z,17.12
2022-08-21T00:45:49.229Z,17.08
2022-08-21T00:50:01.139Z,17.05
2022-08-21T00:54:18.113Z,16.94
2022-08-21T00:58:32.776Z,16.97
2022-08-21T01:02:45.223Z,16.86
2022-08-21T01:06:57.163Z,16.81
2022-08-21T01:11:08.933Z,16.80
2022-08-21T01:15:23.113Z,16.70
2022-08-21T01:19:35.410Z,16.72
2022-08-21T01:23:50.239Z,16.66
2022-08-21T01:28:10.210Z,16.55
2022-08-21T01:32:22.237Z,16.51
2022-08-21T01:36:34.825Z,16.57
2022-08-21T01:40:47.109Z,16.51
2022-08-21T01:44:58.967Z,16.47
2022-08-21T01:49:10.590Z,16.42
2022-08-21T01:53:22.217Z,16.36
2022-08-21T01:57:46.174Z,16.33
2022-08-21T02:01:58.427Z,16.33
2022-08-21T02:06:15.837Z,16.26
2022-08-21T02:10:30.917Z,16.23
2022-08-21T02:14:42.964Z,16.23
2022-08-21T02:18:54.727Z,16.19
2022-08-21T02:23:07.884Z,16.14
2022-08-21T02:27:19.504Z,16.02
2022-08-21T02:31:38.069Z,16.01
2022-08-21T02:35:50.377Z,15.93
2022-08-21T02:40:02.323Z,15.96
2022-08-21T02:44:14.066Z,15.86
2022-08-21T02:48:29.275Z,15.85
2022-08-21T02:52:41.354Z,15.86
2022-08-21T02:56:53.116Z,15.79
2022-08-21T03:01:04.958Z,15.75
2022-08-21T03:05:18.898Z,15.79
2022-08-21T03:09:30.614Z,15.73
2022-08-21T03:13:43.076Z,15.69
2022-08-21T03:17:55.462Z,15.66
2022-08-21T03:22:07.099Z,15.66
2022-08-21T03:26:18.869Z,15.58
2022-08-21T03:30:32.276Z,15.58
2022-08-21T03:34:43.901Z,15.54
2022-08-21T03:38:55.522Z,15.53
2022-08-21T03:43:09.976Z,15.48
2022-08-21T03:47:23.004Z,15.52
2022-08-21T03:51:34.673Z,15.48
2022-08-21T03:55:47.978Z,15.44
2022-08-21T03:59:59.558Z,15.40
2022-08-21T04:04:11.266Z,15.37
2022-08-21T04:08:25.413Z,15.33
2022-08-21T04:12:37.066Z,15.27
2022-08-21T04:16:48.745Z,15.26
2022-08-21T04:21:01.265Z,15.25
2022-08-21T04:25:15.300Z,15.19
2022-08-21T04:29:27.014Z,15.18
2022-08-21T04:33:38.834Z,15.11
2022-08-21T04:37:51.028Z,15.13
2022-08-21T04:42:02.719Z,15.12
2022-08-21T04:46:14.536Z,15.14
2022-08-21T04:50:46.286Z,15.14
2022-08-21T04:54:57.931Z,15.18
2022-08-21T04:59:18.350Z,15.22
2022-08-21T05:03:32.441Z,15.32
2022-08-21T05:07:45.562Z,15.36
2022-08-21T05:11:57.570Z,15.45
2022-08-21T05:16:09.220Z,15.56
2022-08-21T05:20:20.839Z,15.69
2022-08-21T05:24:32.975Z,16.19
2022-08-21T05:28:44.594Z,17.74
2022-08-21T05:33:01.196Z,19.34
2022-08-21T05:37:13.324Z,20.70
2022-08-21T05:41:24.988Z,21.93
2022-08-21T05:45:42.519Z,22.91
2022-08-21T05:49:55.195Z,23.64
2022-08-21T05:54:07.100Z,24.16
2022-08-21T05:58:21.182Z,24.71
2022-08-21T06:02:32.796Z,25.17
2022-08-21T06:06:44.438Z,25.76
2022-08-21T06:10:57.877Z,26.14
2022-08-21T06:15:10.197Z,26.50
2022-08-21T06:19:21.924Z,26.84
2022-08-21T06:23:34.979Z,27.52
2022-08-21T06:27:47.400Z,27.81
2022-08-21T06:31:59.141Z,28.09
2022-08-21T06:36:10.946Z,28.38
2022-08-21T06:40:23.076Z,28.49
2022-08-21T06:44:35.026Z,28.81
2022-08-21T06:48:46.715Z,28.90
2022-08-21T06:53:08.342Z,29.19
2022-08-21T06:57:20.003Z,29.70
2022-08-21T07:01:31.974Z,29.92
2022-08-21T07:05:43.893Z,30.19
2022-08-21T07:09:55.639Z,30.69
2022-08-21T07:14:07.333Z,31.20
2022-08-21T07:18:19.393Z,31.42
2022-08-21T07:22:31.413Z,31.91
2022-08-21T07:26:43.441Z,32.05
2022-08-21T07:30:58.192Z,32.45
2022-08-21T07:35:09.890Z,32.57
2022-08-21T07:39:21.760Z,32.94
2022-08-21T07:43:33.458Z,33.08
2022-08-21T07:47:45.964Z,33.08
2022-08-21T07:51:58.108Z,33.36
2022-08-21T07:56:09.924Z,33.19
2022-08-21T08:00:25.438Z,32.18
2022-08-21T08:04:37.138Z,31.35
2022-08-21T08:09:04.548Z,30.88
2022-08-21T08:13:17.206Z,31.62
2022-08-21T08:17:28.961Z,32.01
2022-08-21T08:21:40.758Z,31.52
2022-08-21T08:25:52.497Z,31.29
2022-08-21T08:30:06.368Z,30.42
2022-08-21T08:34:25.387Z,30.37
2022-08-21T08:38:37.426Z,31.03
2022-08-21T08:42:51.290Z,31.79
2022-08-21T08:47:04.242Z,32.25
2022-08-21T08:51:25.621Z,32.14
2022-08-21T08:55:43.045Z,33.01
2022-08-21T09:00:02.526Z,33.93
2022-08-21T09:04:23.518Z,34.38
2022-08-21T09:09:10.125Z,34.63
2022-08-21T09:14:07.155Z,35.46
2022-08-21T09:18:28.488Z,35.51
2022-08-21T09:22:56.041Z,35.01
2022-08-21T09:27:12.761Z,34.66
2022-08-21T09:31:32.147Z,34.93
2022-08-21T09:35:54.043Z,34.94
2022-08-21T09:40:36.054Z,35.16
2022-08-21T09:44:48.014Z,35.93
2022-08-21T09:49:02.539Z,36.51
2022-08-21T09:53:33.729Z,36.35
2022-08-21T09:57:50.409Z,35.32
2022-08-21T10:02:29.277Z,34.25
2022-08-21T10:06:42.268Z,34.14
2022-08-21T10:11:02.839Z,34.34
2022-08-21T10:15:37.554Z,33.90
2022-08-21T10:20:04.737Z,34.03
2022-08-21T10:24:34.483Z,33.03
2022-08-21T10:29:01.735Z,33.11
2022-08-21T10:33:22.427Z,33.09
2022-08-21T10:37:52.822Z,33.80
2022-08-21T10:42:42.857Z,34.74
2022-08-21T10:47:02.884Z,35.08
2022-08-21T10:51:57.053Z,35.12
2022-08-21T10:56:17.135Z,35.58
2022-08-21T11:00:42.252Z,35.98
2022-08-21T11:05:00.817Z,36.27
2022-08-21T11:09:15.614Z,36.71
2022-08-21T11:13:48.852Z,36.55
2022-08-21T11:18:30.954Z,36.80
2022-08-21T11:22:54.590Z,36.85
2022-08-21T11:27:19.582Z,36.72
2022-08-21T11:32:00.020Z,36.62
2022-08-21T11:36:37.901Z,36.67
2022-08-21T11:41:19.244Z,36.51
2022-08-21T11:45:38.079Z,35.28
2022-08-21T11:50:29.993Z,34.95
2022-08-21T11:54:47.679Z,35.08
2022-08-21T11:59:17.717Z,35.02
2022-08-21T12:03:33.375Z,34.87
2022-08-21T12:07:46.686Z,35.02
2022-08-21T12:12:03.942Z,35.10
2022-08-21T12:16:36.998Z,35.38
2022-08-21T12:21:02.035Z,35.47
2022-08-21T12:25:21.720Z,35.40
2022-08-21T12:29:38.301Z,35.58
2022-08-21T12:34:00.983Z,35.42
2022-08-21T12:38:27.809Z,34.66
2022-08-21T12:42:44.768Z,33.92
2022-08-21T12:47:05.057Z,33.25
2022-08-21T12:51:19.822Z,33.02
2022-08-21T12:55:34.233Z,33.02
2022-08-21T12:59:46.081Z,32.56
2022-08-21T13:04:04.862Z,32.46
2022-08-21T13:08:17.869Z,32.39
2022-08-21T13:12:32.762Z,32.40
2022-08-21T13:16:44.736Z,32.53
2022-08-21T13:21:10.976Z,32.38
2022-08-21T13:25:27.813Z,32.05
2022-08-21T13:29:39.550Z,31.58
2022-08-21T13:33:52.087Z,31.54
2022-08-21T13:38:06.390Z,31.59
2022-08-21T13:42:18.621Z,31.23
2022-08-21T13:46:33.686Z,31.00
2022-08-21T13:50:45.902Z,31.09
2022-08-21T13:55:00.342Z,31.07
2022-08-21T13:59:12.686Z,30.90
2022-08-21T14:03:43.630Z,30.76
2022-08-21T14:08:11.541Z,30.67
2022-08-21T14:12:44.643Z,30.57
2022-08-21T14:17:01.026Z,30.54
2022-08-21T14:21:35.169Z,30.60
2022-08-21T14:25:46.939Z,30.38
2022-08-21T14:30:10.901Z,30.38
2022-08-21T14:34:25.226Z,30.38
2022-08-21T14:38:39.593Z,30.15
2022-08-21T14:42:51.924Z,29.98
2022-08-21T14:47:03.857Z,29.98
2022-08-21T14:51:15.965Z,29.81
2022-08-21T14:55:28.516Z,29.81
2022-08-21T14:59:40.255Z,29.84
2022-08-21T15:03:52.330Z,29.65
2022-08-21T15:08:05.231Z,29.69
2022-08-21T15:12:17.001Z,29.68
2022-08-21T15:16:31.231Z,29.57
2022-08-21T15:20:42.942Z,29.43
2022-08-21T15:24:54.732Z,29.35
2022-08-21T15:29:08.916Z,29.38
2022-08-21T15:33:20.693Z,29.18
2022-08-21T15:37:33.350Z,28.75
2022-08-21T15:41:45.698Z,28.62
2022-08-21T15:46:00.306Z,28.39
2022-08-21T15:50:13.641Z,28.36
2022-08-21T15:54:25.327Z,28.23
2022-08-21T15:58:37.055Z,28.07
2022-08-21T16:02:52.767Z,28.06
2022-08-21T16:07:09.395Z,27.81
2022-08-21T16:11:21.639Z,27.58
2022-08-21T16:15:33.507Z,27.29
2022-08-21T16:19:45.404Z,27.31
2022-08-21T16:23:57.243Z,27.16
2022-08-21T16:28:14.025Z,27.03
2022-08-21T16:32:26.865Z,27.08
2022-08-21T16:36:41.253Z,26.95
2022-08-21T16:40:53.069Z,26.67
2022-08-21T16:45:12.086Z,26.54
2022-08-21T16:49:23.765Z,26.49
2022-08-21T16:53:35.453Z,26.41
2022-08-21T16:57:47.458Z,26.20
2022-08-21T17:01:59.133Z,26.11
2022-08-21T17:06:11.377Z,25.90
2022-08-21T17:10:23.430Z,25.95
2022-08-21T17:14:36.322Z,25.86
2022-08-21T17:18:47.975Z,25.84
2022-08-21T17:23:07.045Z,25.79
2022-08-21T17:27:22.570Z,25.74
2022-08-21T17:31:41.088Z,25.84
2022-08-21T17:35:54.046Z,25.74
2022-08-21T17:40:08.523Z,25.70
2022-08-21T17:44:21.565Z,25.65
2022-08-21T17:48:33.475Z,25.53
2022-08-21T17:52:47.169Z,25.48
2022-08-21T17:56:59.877Z,25.32
2022-08-21T18:01:12.423Z,25.28
2022-08-21T18:05:24.171Z,25.18
2022-08-21T18:09:35.768Z,25.05
2022-08-21T18:13:47.336Z,24.86
2022-08-21T18:17:59.525Z,24.87
2022-08-21T18:22:11.209Z,24.83
2022-08-21T18:26:29.528Z,24.76
2022-08-21T18:30:43.775Z,24.73
2022-08-21T18:34:57.304Z,24.58
2022-08-21T18:39:34.928Z,24.52
2022-08-21T18:43:40.594Z,24.36
2022-08-21T18:47:55.113Z,24.30
2022-08-21T18:52:07.310Z,24.29
2022-08-21T18:56:21.449Z,24.21
2022-08-21T19:00:44.346Z,24.13
2022-08-21T19:04:56.077Z,24.05
2022-08-21T19:09:10.122Z,24.04
2022-08-21T19:13:22.568Z,23.87
2022-08-21T19:17:34.612Z,23.79
2022-08-21T19:21:49.380Z,23.73
2022-08-21T19:26:03.843Z,23.68
2022-08-21T19:30:15.886Z,23.68
2022-08-21T19:34:29.122Z,23.63
2022-08-21T19:38:41.328Z,23.58
2022-08-21T19:42:53.183Z,23.45
2022-08-21T19:47:13.338Z,23.36
2022-08-21T19:51:30.826Z,23.24
2022-08-21T19:55:45.093Z,23.13
2022-08-21T20:00:00.202Z,23.00
2022-08-21T20:04:17.992Z,23.03
2022-08-21T20:08:31.660Z,22.98
2022-08-21T20:12:48.332Z,22.91
2022-08-21T20:17:10.614Z,22.82
2022-08-21T20:21:22.692Z,22.75
2022-08-21T20:25:35.999Z,22.67
2022-08-21T20:29:47.779Z,22.58
2022-08-21T20:34:01.733Z,22.51
2022-08-21T20:38:13.578Z,22.42
2022-08-21T20:42:25.433Z,22.39
2022-08-21T20:46:37.582Z,22.31
2022-08-21T20:50:57.066Z,22.28
2022-08-21T20:55:14.188Z,22.19
2022-08-21T20:59:34.974Z,22.23
2022-08-21T21:04:01.970Z,22.14
2022-08-21T21:08:25.264Z,21.99
2022-08-21T21:12:42.590Z,21.91
2022-08-21T21:17:03.531Z,21.78
2022-08-21T21:21:32.889Z,21.72
2022-08-21T21:26:06.612Z,21.61
2022-08-21T21:30:27.125Z,21.51
2022-08-21T21:34:42.353Z,21.45
2022-08-21T21:39:00.850Z,21.35
2022-08-21T21:43:21.403Z,21.26
2022-08-21T21:47:57.550Z,21.29
2022-08-21T21:52:44.490Z,21.19
2022-08-21T21:57:11.462Z,21.10
2022-08-21T22:01:41.308Z,21.04
2022-08-21T22:06:00.331Z,20.96
2022-08-21T22:10:43.225Z,21.00
2022-08-21T22:14:56.156Z,20.93
2022-08-21T22:19:30.728Z,20.95
2022-08-21T22:23:49.963Z,20.89
2022-08-21T22:28:09.956Z,20.87
2022-08-21T22:32:42.792Z,20.84
2022-08-21T22:37:05.043Z,20.84
2022-08-21T22:41:28.023Z,20.79
2022-08-21T22:46:10.660Z,20.80
2022-08-21T22:50:25.494Z,20.79
2022-08-21T22:54:45.204Z,20.72
2022-08-21T22:59:01.085Z,20.66
2022-08-21T23:03:25.980Z,20.64
2022-08-21T23:07:44.350Z,20.65
2022-08-21T23:12:02.773Z,20.68
2022-08-21T23:16:54.830Z,20.67
2022-08-21T23:21:22.978Z,20.63
2022-08-21T23:25:54.123Z,20.59
2022-08-21T23:30:18.560Z,20.57
2022-08-21T23:34:43.230Z,20.59
2022-08-21T23:39:13.423Z,20.57
2022-08-21T23:43:50.947Z,20.49
2022-08-21T23:48:29.619Z,20.52
2022-08-21T23:53:08.894Z,20.55
2022-08-21T23:57:53.629Z,20.49
